sensor_id;sensor_type;location;lat;lon;timestamp;pressure;altitude;pressure_sealevel;temperature;humidity
6136;BME280;24008;42.664;23.372;2023-06-24T00:02:02;94769.19;;;22.13;74.56
6136;BME280;24008;42.664;23.372;2023-06-24T00:04:29;94773.59;;;22.12;74.63
6136;BME280;24008;42.664;23.372;2023-06-24T00:06:56;94735.28;;;21.88;75.02
6136;BME280;24008;42.664;23.372;2023-06-24T00:09:25;94723.75;;;21.77;75.34
6136;BME280;24008;42.664;23.372;2023-06-24T00:11:53;94775.25;;;22.07;75.95
6136;BME280;24008;42.664;23.372;2023-06-24T00:14:19;94770.47;;;22.04;76.21
6136;BME280;24008;42.664;23.372;2023-06-24T00:16:47;94763.28;;;21.99;76.60
6136;BME280;24008;42.664;23.372;2023-06-24T00:19:18;94771.50;;;21.96;76.72
6136;BME280;24008;42.664;23.372;2023-06-24T00:21:45;94737.03;;;21.69;77.11
6136;BME280;24008;42.664;23.372;2023-06-24T00:24:12;94769.78;;;21.83;77.31
6136;BME280;24008;42.664;23.372;2023-06-24T00:26:39;94744.28;;;21.61;77.35
6136;BME280;24008;42.664;23.372;2023-06-24T00:29:06;94735.88;;;21.59;77.59
6136;BME280;24008;42.664;23.372;2023-06-24T00:31:32;94771.59;;;21.76;77.71
6136;BME280;24008;42.664;23.372;2023-06-24T00:33:59;94766.50;;;21.56;77.66
6136;BME280;24008;42.664;23.372;2023-06-24T00:36:27;94778.84;;;21.68;77.93
6136;BME280;24008;42.664;23.372;2023-06-24T00:38:55;94767.44;;;21.69;78.04
6136;BME280;24008;42.664;23.372;2023-06-24T00:41:22;94768.44;;;21.68;78.12
6136;BME280;24008;42.664;23.372;2023-06-24T00:43:49;94554.91;;;20.24;78.50
6136;BME280;24008;42.664;23.372;2023-06-24T00:46:17;94766.50;;;21.56;78.93
6136;BME280;24008;42.664;23.372;2023-06-24T00:48:45;94760.69;;;21.54;79.33
6136;BME280;24008;42.664;23.372;2023-06-24T00:51:12;94728.00;;;21.27;79.47
6136;BME280;24008;42.664;23.372;2023-06-24T00:53:40;94715.28;;;21.12;80.16
6136;BME280;24008;42.664;23.372;2023-06-24T00:56:07;94770.16;;;21.42;80.63
6136;BME280;24008;42.664;23.372;2023-06-24T00:58:35;94761.97;;;21.39;80.88
6136;BME280;24008;42.664;23.372;2023-06-24T01:01:04;94713.69;;;21.05;80.54
6136;BME280;24008;42.664;23.372;2023-06-24T01:03:34;94732.03;;;21.16;80.74
6136;BME280;24008;42.664;23.372;2023-06-24T01:06:05;94759.41;;;21.32;80.83
6136;BME280;24008;42.664;23.372;2023-06-24T01:08:33;94750.81;;;21.32;80.48
6136;BME280;24008;42.664;23.372;2023-06-24T01:11:02;94750.00;;;21.31;80.55
6136;BME280;24008;42.664;23.372;2023-06-24T01:13:28;94713.66;;;21.11;80.72
6136;BME280;24008;42.664;23.372;2023-06-24T01:15:56;94747.22;;;21.26;80.63
6136;BME280;24008;42.664;23.372;2023-06-24T01:18:32;94720.47;;;21.06;80.96
6136;BME280;24008;42.664;23.372;2023-06-24T01:21:04;94723.31;;;20.98;81.09
6136;BME280;24008;42.664;23.372;2023-06-24T01:23:47;94743.66;;;21.20;80.69
6136;BME280;24008;42.664;23.372;2023-06-24T01:26:38;94721.72;;;20.97;80.42
6136;BME280;24008;42.664;23.372;2023-06-24T01:32:04;94741.47;;;21.11;81.04
6136;BME280;24008;42.664;23.372;2023-06-24T01:34:37;94627.34;;;20.32;81.28
6136;BME280;24008;42.664;23.372;2023-06-24T01:37:11;94748.06;;;21.07;81.20
6136;BME280;24008;42.664;23.372;2023-06-24T01:39:44;94744.84;;;21.05;81.09
6136;BME280;24008;42.664;23.372;2023-06-24T01:42:14;94696.19;;;20.74;80.96
6136;BME280;24008;42.664;23.372;2023-06-24T01:44:43;94739.88;;;21.03;81.08
6136;BME280;24008;42.664;23.372;2023-06-24T01:47:14;94740.66;;;21.04;80.77
6136;BME280;24008;42.664;23.372;2023-06-24T01:49:44;94728.53;;;20.84;80.57
6136;BME280;24008;42.664;23.372;2023-06-24T01:52:13;94762.25;;;21.04;80.17
6136;BME280;24008;42.664;23.372;2023-06-24T01:54:41;94777.25;;;21.02;80.79
6136;BME280;24008;42.664;23.372;2023-06-24T01:57:10;94749.72;;;20.81;81.75
6136;BME280;24008;42.664;23.372;2023-06-24T01:59:40;94752.16;;;20.76;82.76
6136;BME280;24008;42.664;23.372;2023-06-24T02:02:09;94744.16;;;20.71;83.18
6136;BME280;24008;42.664;23.372;2023-06-24T02:04:38;94783.09;;;20.84;83.00
6136;BME280;24008;42.664;23.372;2023-06-24T02:07:06;94779.09;;;20.82;83.04
6136;BME280;24008;42.664;23.372;2023-06-24T02:09:35;94761.56;;;20.64;83.40
6136;BME280;24008;42.664;23.372;2023-06-24T02:12:03;94750.56;;;20.49;83.45
6136;BME280;24008;42.664;23.372;2023-06-24T02:14:31;94705.84;;;20.14;83.95
6136;BME280;24008;42.664;23.372;2023-06-24T02:17:01;94711.81;;;20.08;85.28
6136;BME280;24008;42.664;23.372;2023-06-24T02:19:30;94780.91;;;20.55;85.76
6136;BME280;24008;42.664;23.372;2023-06-24T02:21:59;94780.53;;;20.52;85.87
6136;BME280;24008;42.664;23.372;2023-06-24T02:24:27;94750.94;;;20.20;86.23
6136;BME280;24008;42.664;23.372;2023-06-24T02:26:56;94787.13;;;20.47;86.71
6136;BME280;24008;42.664;23.372;2023-06-24T02:29:25;94790.91;;;20.45;87.15
6136;BME280;24008;42.664;23.372;2023-06-24T02:31:53;94803.28;;;20.43;87.74
6136;BME280;24008;42.664;23.372;2023-06-24T02:34:22;94817.88;;;20.37;88.59
6136;BME280;24008;42.664;23.372;2023-06-24T02:36:49;94827.59;;;20.29;89.11
6136;BME280;24008;42.664;23.372;2023-06-24T02:39:17;94844.97;;;20.22;89.94
6136;BME280;24008;42.664;23.372;2023-06-24T02:41:44;94829.97;;;20.17;90.22
6136;BME280;24008;42.664;23.372;2023-06-24T02:44:12;94834.97;;;20.12;90.62
6136;BME280;24008;42.664;23.372;2023-06-24T02:46:40;94843.94;;;20.09;91.15
6136;BME280;24008;42.664;23.372;2023-06-24T02:49:09;94729.19;;;19.33;91.37
6136;BME280;24008;42.664;23.372;2023-06-24T02:51:38;94864.28;;;20.06;91.84
6136;BME280;24008;42.664;23.372;2023-06-24T02:54:06;94800.56;;;19.84;92.11
6136;BME280;24008;42.664;23.372;2023-06-24T02:56:35;94804.97;;;19.83;92.56
6136;BME280;24008;42.664;23.372;2023-06-24T02:59:02;94831.13;;;19.95;93.19
6136;BME280;24008;42.664;23.372;2023-06-24T03:01:29;94722.78;;;19.23;92.97
6136;BME280;24008;42.664;23.372;2023-06-24T03:03:56;94836.06;;;19.76;93.59
6136;BME280;24008;42.664;23.372;2023-06-24T03:06:23;94802.50;;;19.62;94.06
6136;BME280;24008;42.664;23.372;2023-06-24T03:08:52;94580.66;;;18.18;94.52
6136;BME280;24008;42.664;23.372;2023-06-24T03:11:19;94849.88;;;19.90;94.97
6136;BME280;24008;42.664;23.372;2023-06-24T03:13:47;94852.25;;;19.85;95.40
6136;BME280;24008;42.664;23.372;2023-06-24T03:16:14;94849.06;;;19.83;95.78
6136;BME280;24008;42.664;23.372;2023-06-24T03:18:41;94850.03;;;19.82;96.16
6136;BME280;24008;42.664;23.372;2023-06-24T03:21:08;94820.66;;;19.62;96.75
6136;BME280;24008;42.664;23.372;2023-06-24T03:23:35;94814.72;;;19.68;97.19
6136;BME280;24008;42.664;23.372;2023-06-24T03:26:02;94771.91;;;19.44;97.69
6136;BME280;24008;42.664;23.372;2023-06-24T03:28:31;94810.53;;;19.73;97.72
6136;BME280;24008;42.664;23.372;2023-06-24T03:30:59;94824.09;;;19.82;98.02
6136;BME280;24008;42.664;23.372;2023-06-24T03:33:26;94864.50;;;20.11;97.77
6136;BME280;24008;42.664;23.372;2023-06-24T03:35:53;94839.31;;;19.98;97.79
6136;BME280;24008;42.664;23.372;2023-06-24T03:38:20;94875.34;;;20.28;97.46
6136;BME280;24008;42.664;23.372;2023-06-24T03:40:47;94846.75;;;20.14;96.91
6136;BME280;24008;42.664;23.372;2023-06-24T03:43:14;94886.78;;;20.40;96.92
6136;BME280;24008;42.664;23.372;2023-06-24T03:45:41;94876.19;;;20.48;97.02
6136;BME280;24008;42.664;23.372;2023-06-24T03:48:10;94878.78;;;20.55;96.23
6136;BME280;24008;42.664;23.372;2023-06-24T03:50:37;94900.78;;;20.59;95.77
6136;BME280;24008;42.664;23.372;2023-06-24T03:53:04;94888.38;;;20.67;95.26
6136;BME280;24008;42.664;23.372;2023-06-24T03:55:30;94851.25;;;20.60;94.26
6136;BME280;24008;42.664;23.372;2023-06-24T03:57:57;94874.41;;;20.81;93.63
6136;BME280;24008;42.664;23.372;2023-06-24T04:00:24;94890.59;;;20.97;93.70
6136;BME280;24008;42.664;23.372;2023-06-24T04:02:51;94757.34;;;20.24;93.25
6136;BME280;24008;42.664;23.372;2023-06-24T04:05:20;94838.44;;;20.92;92.70
6136;BME280;24008;42.664;23.372;2023-06-24T04:07:47;94880.00;;;21.18;92.13
6136;BME280;24008;42.664;23.372;2023-06-24T04:10:17;94851.59;;;21.03;90.88
6136;BME280;24008;42.664;23.372;2023-06-24T04:12:44;94745.19;;;20.37;90.80
6136;BME280;24008;42.664;23.372;2023-06-24T04:15:11;94866.03;;;21.19;91.14
6136;BME280;24008;42.664;23.372;2023-06-24T04:17:38;94829.03;;;20.97;90.81
6136;BME280;24008;42.664;23.372;2023-06-24T04:20:06;94728.81;;;20.50;90.57
6136;BME280;24008;42.664;23.372;2023-06-24T04:22:36;94819.63;;;21.23;91.05
6136;BME280;24008;42.664;23.372;2023-06-24T04:25:04;94850.34;;;21.59;88.94
6136;BME280;24008;42.664;23.372;2023-06-24T04:27:32;94867.00;;;21.96;87.80
6136;BME280;24008;42.664;23.372;2023-06-24T04:29:59;94868.44;;;22.61;86.01
6136;BME280;24008;42.664;23.372;2023-06-24T04:32:26;94863.59;;;23.39;81.32
6136;BME280;24008;42.664;23.372;2023-06-24T04:34:53;94807.09;;;23.99;77.04
6136;BME280;24008;42.664;23.372;2023-06-24T04:37:19;94841.09;;;24.94;72.06
6136;BME280;24008;42.664;23.372;2023-06-24T04:39:48;94803.03;;;25.50;68.02
6136;BME280;24008;42.664;23.372;2023-06-24T04:42:15;94864.19;;;26.36;64.83
6136;BME280;24008;42.664;23.372;2023-06-24T04:44:42;94865.13;;;26.75;62.75
6136;BME280;24008;42.664;23.372;2023-06-24T04:47:09;94866.41;;;27.22;60.86
6136;BME280;24008;42.664;23.372;2023-06-24T04:49:36;94695.41;;;26.53;59.00
6136;BME280;24008;42.664;23.372;2023-06-24T04:52:03;94768.81;;;27.04;59.32
6136;BME280;24008;42.664;23.372;2023-06-24T04:54:30;94818.50;;;27.71;55.10
6136;BME280;24008;42.664;23.372;2023-06-24T04:56:58;94851.97;;;28.24;52.35
6136;BME280;24008;42.664;23.372;2023-06-24T04:59:25;94838.28;;;28.22;50.97
6136;BME280;24008;42.664;23.372;2023-06-24T05:01:52;94881.69;;;28.78;50.79
6136;BME280;24008;42.664;23.372;2023-06-24T05:04:19;94803.44;;;28.68;48.58
6136;BME280;24008;42.664;23.372;2023-06-24T05:06:45;94775.56;;;28.67;48.02
6136;BME280;24008;42.664;23.372;2023-06-24T05:09:12;94864.31;;;29.46;47.85
6136;BME280;24008;42.664;23.372;2023-06-24T05:11:39;94811.66;;;29.51;47.06
6136;BME280;24008;42.664;23.372;2023-06-24T05:14:07;94872.03;;;30.25;45.72
6136;BME280;24008;42.664;23.372;2023-06-24T05:16:34;94874.66;;;30.20;47.68
6136;BME280;24008;42.664;23.372;2023-06-24T05:19:01;94873.41;;;30.43;46.23
6136;BME280;24008;42.664;23.372;2023-06-24T05:21:28;94748.63;;;30.12;44.88
6136;BME280;24008;42.664;23.372;2023-06-24T05:23:57;94857.66;;;31.09;46.15
6136;BME280;24008;42.664;23.372;2023-06-24T05:26:24;94842.06;;;30.92;46.08
6136;BME280;24008;42.664;23.372;2023-06-24T05:28:50;94867.88;;;31.56;43.45
6136;BME280;24008;42.664;23.372;2023-06-24T05:31:18;94822.63;;;31.78;42.90
6136;BME280;24008;42.664;23.372;2023-06-24T05:33:46;94867.19;;;32.10;41.87
6136;BME280;24008;42.664;23.372;2023-06-24T05:36:13;94753.06;;;31.23;41.89
6136;BME280;24008;42.664;23.372;2023-06-24T05:38:39;94854.16;;;31.49;42.12
6136;BME280;24008;42.664;23.372;2023-06-24T05:41:06;94867.03;;;31.86;42.37
6136;BME280;24008;42.664;23.372;2023-06-24T05:43:33;94873.78;;;32.23;42.24
6136;BME280;24008;42.664;23.372;2023-06-24T05:46:00;94867.13;;;32.30;42.13
6136;BME280;24008;42.664;23.372;2023-06-24T05:48:28;94787.28;;;31.59;42.70
6136;BME280;24008;42.664;23.372;2023-06-24T05:50:55;94870.69;;;31.95;42.93
6136;BME280;24008;42.664;23.372;2023-06-24T05:53:22;94856.72;;;31.79;43.63
6136;BME280;24008;42.664;23.372;2023-06-24T05:55:48;94815.56;;;31.58;44.42
6136;BME280;24008;42.664;23.372;2023-06-24T05:58:15;94866.44;;;31.99;43.58
6136;BME280;24008;42.664;23.372;2023-06-24T06:00:42;94807.50;;;31.14;44.67
6136;BME280;24008;42.664;23.372;2023-06-24T06:03:09;94863.88;;;31.84;43.28
6136;BME280;24008;42.664;23.372;2023-06-24T06:05:37;94836.41;;;31.75;43.21
6136;BME280;24008;42.664;23.372;2023-06-24T06:08:04;94830.59;;;31.68;43.27
6136;BME280;24008;42.664;23.372;2023-06-24T06:10:31;94845.19;;;31.40;44.04
6136;BME280;24008;42.664;23.372;2023-06-24T06:12:58;94847.47;;;31.87;42.68
6136;BME280;24008;42.664;23.372;2023-06-24T06:15:24;94803.53;;;31.96;42.30
6136;BME280;24008;42.664;23.372;2023-06-24T06:17:52;94770.81;;;31.82;42.94
6136;BME280;24008;42.664;23.372;2023-06-24T06:20:18;94857.13;;;32.61;41.50
6136;BME280;24008;42.664;23.372;2023-06-24T06:22:47;94809.63;;;32.41;40.63
6136;BME280;24008;42.664;23.372;2023-06-24T06:25:13;94860.97;;;33.13;39.83
6136;BME280;24008;42.664;23.372;2023-06-24T06:27:40;94806.88;;;33.24;38.78
6136;BME280;24008;42.664;23.372;2023-06-24T06:30:08;94858.41;;;33.60;39.13
6136;BME280;24008;42.664;23.372;2023-06-24T06:32:35;94862.53;;;33.77;38.81
6136;BME280;24008;42.664;23.372;2023-06-24T06:35:02;94857.06;;;33.39;39.26
6136;BME280;24008;42.664;23.372;2023-06-24T06:37:28;94858.81;;;33.49;39.26
6136;BME280;24008;42.664;23.372;2023-06-24T06:39:56;94852.13;;;34.04;38.95
6136;BME280;24008;42.664;23.372;2023-06-24T06:42:23;94838.63;;;34.19;37.50
6136;BME280;24008;42.664;23.372;2023-06-24T06:44:50;94834.16;;;33.77;37.85
6136;BME280;24008;42.664;23.372;2023-06-24T06:47:17;94869.78;;;33.08;39.80
6136;BME280;24008;42.664;23.372;2023-06-24T06:49:43;94886.22;;;33.39;40.07
6136;BME280;24008;42.664;23.372;2023-06-24T06:52:10;94849.16;;;33.58;39.65
6136;BME280;24008;42.664;23.372;2023-06-24T06:54:37;94842.97;;;33.68;39.12
6136;BME280;24008;42.664;23.372;2023-06-24T06:57:05;94851.09;;;34.00;38.36
6136;BME280;24008;42.664;23.372;2023-06-24T06:59:32;94821.34;;;34.03;38.25
6136;BME280;24008;42.664;23.372;2023-06-24T07:01:59;94875.16;;;33.85;38.84
6136;BME280;24008;42.664;23.372;2023-06-24T07:04:26;94873.13;;;33.77;40.16
6136;BME280;24008;42.664;23.372;2023-06-24T07:06:52;94870.72;;;33.80;41.14
6136;BME280;24008;42.664;23.372;2023-06-24T07:09:19;94851.41;;;33.70;39.55
6136;BME280;24008;42.664;23.372;2023-06-24T07:11:46;94870.84;;;34.13;40.15
6136;BME280;24008;42.664;23.372;2023-06-24T07:14:14;94865.09;;;34.29;39.02
6136;BME280;24008;42.664;23.372;2023-06-24T07:16:41;94769.56;;;33.44;39.11
6136;BME280;24008;42.664;23.372;2023-06-24T07:19:08;94880.78;;;34.45;39.63
6136;BME280;24008;42.664;23.372;2023-06-24T07:21:34;94813.13;;;34.05;39.33
6136;BME280;24008;42.664;23.372;2023-06-24T07:24:01;94874.81;;;34.90;38.10
6136;BME280;24008;42.664;23.372;2023-06-24T07:26:28;94869.38;;;35.14;37.26
6136;BME280;24008;42.664;23.372;2023-06-24T07:28:56;94867.38;;;34.74;37.79
6136;BME280;24008;42.664;23.372;2023-06-24T07:31:25;94848.13;;;34.44;39.31
6136;BME280;24008;42.664;23.372;2023-06-24T07:33:52;94865.75;;;34.78;39.07
6136;BME280;24008;42.664;23.372;2023-06-24T07:36:18;94869.72;;;35.26;38.56
6136;BME280;24008;42.664;23.372;2023-06-24T07:38:45;94796.03;;;35.32;36.35
6136;BME280;24008;42.664;23.372;2023-06-24T07:41:12;94874.44;;;35.89;35.88
6136;BME280;24008;42.664;23.372;2023-06-24T07:43:39;94856.31;;;35.18;36.77
6136;BME280;24008;42.664;23.372;2023-06-24T07:46:05;94865.16;;;34.81;38.79
6136;BME280;24008;42.664;23.372;2023-06-24T07:48:34;94858.34;;;35.39;36.21
6136;BME280;24008;42.664;23.372;2023-06-24T07:51:00;94836.22;;;35.71;36.37
6136;BME280;24008;42.664;23.372;2023-06-24T07:53:27;94825.97;;;35.65;35.86
6136;BME280;24008;42.664;23.372;2023-06-24T07:55:54;94867.91;;;35.54;36.98
6136;BME280;24008;42.664;23.372;2023-06-24T07:58:21;94795.94;;;35.04;37.40
6136;BME280;24008;42.664;23.372;2023-06-24T08:00:47;94868.13;;;35.71;35.96
6136;BME280;24008;42.664;23.372;2023-06-24T08:03:15;94867.84;;;35.59;36.20
6136;BME280;24008;42.664;23.372;2023-06-24T08:05:43;94875.22;;;35.62;36.02
6136;BME280;24008;42.664;23.372;2023-06-24T08:08:10;94845.66;;;35.64;35.06
6136;BME280;24008;42.664;23.372;2023-06-24T08:10:37;94877.38;;;35.60;36.06
6136;BME280;24008;42.664;23.372;2023-06-24T08:13:04;94874.03;;;35.22;36.04
6136;BME280;24008;42.664;23.372;2023-06-24T08:15:30;94875.13;;;35.21;36.68
6136;BME280;24008;42.664;23.372;2023-06-24T08:17:57;94875.41;;;35.20;36.25
6136;BME280;24008;42.664;23.372;2023-06-24T08:20:25;94745.88;;;34.14;37.35
6136;BME280;24008;42.664;23.372;2023-06-24T08:22:53;94871.69;;;35.21;37.32
6136;BME280;24008;42.664;23.372;2023-06-24T08:25:20;94867.53;;;35.47;36.73
6136;BME280;24008;42.664;23.372;2023-06-24T08:27:47;94822.31;;;35.47;35.71
6136;BME280;24008;42.664;23.372;2023-06-24T08:30:14;94815.72;;;35.58;35.44
6136;BME280;24008;42.664;23.372;2023-06-24T08:32:41;94872.47;;;36.08;34.79
6136;BME280;24008;42.664;23.372;2023-06-24T08:35:08;94696.22;;;35.26;34.78
6136;BME280;24008;42.664;23.372;2023-06-24T08:37:35;94793.44;;;36.09;34.31
6136;BME280;24008;42.664;23.372;2023-06-24T08:40:05;94852.03;;;36.45;34.64
6136;BME280;24008;42.664;23.372;2023-06-24T08:42:32;94834.22;;;36.18;34.42
6136;BME280;24008;42.664;23.372;2023-06-24T08:44:59;94851.66;;;36.24;34.44
6136;BME280;24008;42.664;23.372;2023-06-24T08:47:28;94842.53;;;36.03;35.33
6136;BME280;24008;42.664;23.372;2023-06-24T08:50:02;94791.41;;;35.37;36.85
6136;BME280;24008;42.664;23.372;2023-06-24T08:52:32;94678.47;;;35.08;36.10
6136;BME280;24008;42.664;23.372;2023-06-24T08:55:01;94826.19;;;36.46;35.38
6136;BME280;24008;42.664;23.372;2023-06-24T08:57:30;94737.13;;;35.80;35.64
6136;BME280;24008;42.664;23.372;2023-06-24T08:59:56;94833.50;;;36.62;33.74
6136;BME280;24008;42.664;23.372;2023-06-24T09:02:23;94841.22;;;36.64;34.26
6136;BME280;24008;42.664;23.372;2023-06-24T09:04:50;94830.63;;;36.72;33.66
6136;BME280;24008;42.664;23.372;2023-06-24T09:07:25;94804.69;;;36.06;35.85
6136;BME280;24008;42.664;23.372;2023-06-24T09:09:52;94830.50;;;36.05;34.83
6136;BME280;24008;42.664;23.372;2023-06-24T09:12:19;94799.38;;;35.79;35.47
6136;BME280;24008;42.664;23.372;2023-06-24T09:14:49;94831.28;;;36.06;36.08
6136;BME280;24008;42.664;23.372;2023-06-24T09:17:17;94821.97;;;36.44;33.88
6136;BME280;24008;42.664;23.372;2023-06-24T09:19:47;94829.47;;;36.65;33.67
6136;BME280;24008;42.664;23.372;2023-06-24T09:22:14;94835.06;;;36.99;32.81
6136;BME280;24008;42.664;23.372;2023-06-24T09:24:44;94795.91;;;37.08;32.15
6136;BME280;24008;42.664;23.372;2023-06-24T09:27:12;94841.09;;;37.67;31.67
6136;BME280;24008;42.664;23.372;2023-06-24T09:29:40;94835.00;;;37.83;31.45
6136;BME280;24008;42.664;23.372;2023-06-24T09:32:09;94791.84;;;36.58;33.00
6136;BME280;24008;42.664;23.372;2023-06-24T09:34:36;94833.56;;;36.49;34.98
6136;BME280;24008;42.664;23.372;2023-06-24T09:37:03;94801.16;;;35.97;35.03
6136;BME280;24008;42.664;23.372;2023-06-24T09:39:35;94781.00;;;36.18;34.21
6136;BME280;24008;42.664;23.372;2023-06-24T09:42:04;94838.09;;;36.84;33.53
6136;BME280;24008;42.664;23.372;2023-06-24T09:44:32;94796.19;;;36.76;32.46
6136;BME280;24008;42.664;23.372;2023-06-24T09:46:59;94835.16;;;37.39;31.93
6136;BME280;24008;42.664;23.372;2023-06-24T09:49:28;94716.50;;;36.88;31.34
6136;BME280;24008;42.664;23.372;2023-06-24T09:51:56;94801.97;;;37.54;31.58
6136;BME280;24008;42.664;23.372;2023-06-24T09:54:25;94828.16;;;37.60;32.10
6136;BME280;24008;42.664;23.372;2023-06-24T09:56:54;94837.88;;;37.56;32.11
6136;BME280;24008;42.664;23.372;2023-06-24T09:59:25;94724.09;;;36.50;33.03
6136;BME280;24008;42.664;23.372;2023-06-24T10:01:53;94828.56;;;37.14;32.66
6136;BME280;24008;42.664;23.372;2023-06-24T10:04:21;94788.91;;;36.68;33.40
6136;BME280;24008;42.664;23.372;2023-06-24T10:06:50;94758.41;;;35.80;34.99
6136;BME280;24008;42.664;23.372;2023-06-24T10:09:18;94764.31;;;35.77;36.42
6136;BME280;24008;42.664;23.372;2023-06-24T10:11:45;94789.06;;;36.13;33.36
6136;BME280;24008;42.664;23.372;2023-06-24T10:14:13;94800.31;;;36.24;33.91
6136;BME280;24008;42.664;23.372;2023-06-24T10:16:40;94792.53;;;36.50;32.48
6136;BME280;24008;42.664;23.372;2023-06-24T10:19:08;94673.31;;;35.80;33.31
6136;BME280;24008;42.664;23.372;2023-06-24T10:21:45;94796.81;;;36.73;33.48
6136;BME280;24008;42.664;23.372;2023-06-24T10:24:28;94755.44;;;36.53;33.03
6136;BME280;24008;42.664;23.372;2023-06-24T10:26:55;94768.69;;;36.22;33.90
6136;BME280;24008;42.664;23.372;2023-06-24T10:29:31;94777.72;;;35.71;34.80
6136;BME280;24008;42.664;23.372;2023-06-24T10:32:02;94729.66;;;35.82;34.32
6136;BME280;24008;42.664;23.372;2023-06-24T10:34:34;94768.72;;;36.44;33.48
6136;BME280;24008;42.664;23.372;2023-06-24T10:37:09;94716.91;;;36.28;32.58
6136;BME280;24008;42.664;23.372;2023-06-24T10:39:45;94765.81;;;36.77;32.74
6136;BME280;24008;42.664;23.372;2023-06-24T10:42:36;94732.63;;;36.38;32.99
6136;BME280;24008;42.664;23.372;2023-06-24T10:45:15;94750.13;;;35.95;33.34
6136;BME280;24008;42.664;23.372;2023-06-24T10:47:43;94675.31;;;35.74;33.62
6136;BME280;24008;42.664;23.372;2023-06-24T10:50:12;94677.56;;;36.03;32.97
6136;BME280;24008;42.664;23.372;2023-06-24T10:52:40;94650.13;;;35.44;33.63
6136;BME280;24008;42.664;23.372;2023-06-24T10:55:09;94679.06;;;34.91;34.45
6136;BME280;24008;42.664;23.372;2023-06-24T10:57:36;94557.75;;;33.48;34.27
6136;BME280;24008;42.664;23.372;2023-06-24T11:00:04;94719.97;;;34.25;34.38
6136;BME280;24008;42.664;23.372;2023-06-24T11:02:31;94621.59;;;33.33;35.05
6136;BME280;24008;42.664;23.372;2023-06-24T11:04:59;94722.09;;;33.67;36.06
6136;BME280;24008;42.664;23.372;2023-06-24T11:07:27;94727.84;;;33.31;35.97
6136;BME280;24008;42.664;23.372;2023-06-24T11:09:58;94725.78;;;33.23;36.72
6136;BME280;24008;42.664;23.372;2023-06-24T11:12:28;94717.44;;;33.11;38.44
6136;BME280;24008;42.664;23.372;2023-06-24T11:14:55;94562.03;;;32.11;37.83
6136;BME280;24008;42.664;23.372;2023-06-24T11:17:23;94456.34;;;31.43;37.04
6136;BME280;24008;42.664;23.372;2023-06-24T11:19:52;94713.94;;;33.15;37.41
6136;BME280;24008;42.664;23.372;2023-06-24T11:22:19;94523.19;;;32.06;37.68
6136;BME280;24008;42.664;23.372;2023-06-24T11:24:46;94731.88;;;33.47;37.60
6136;BME280;24008;42.664;23.372;2023-06-24T11:27:13;94717.69;;;33.38;36.36
6136;BME280;24008;42.664;23.372;2023-06-24T11:29:41;94729.31;;;33.42;36.26
6136;BME280;24008;42.664;23.372;2023-06-24T11:32:08;94674.94;;;32.97;35.80
6136;BME280;24008;42.664;23.372;2023-06-24T11:34:36;94696.50;;;33.38;35.51
6136;BME280;24008;42.664;23.372;2023-06-24T11:37:13;94712.28;;;33.24;33.67
6136;BME280;24008;42.664;23.372;2023-06-24T11:39:40;94697.28;;;33.15;34.28
6136;BME280;24008;42.664;23.372;2023-06-24T11:42:07;94628.63;;;32.71;34.37
6136;BME280;24008;42.664;23.372;2023-06-24T11:44:34;94716.22;;;33.03;34.29
6136;BME280;24008;42.664;23.372;2023-06-24T11:47:07;94718.91;;;32.69;35.09
6136;BME280;24008;42.664;23.372;2023-06-24T11:49:47;94710.03;;;32.55;36.10
6136;BME280;24008;42.664;23.372;2023-06-24T11:52:14;94703.56;;;32.71;36.06
6136;BME280;24008;42.664;23.372;2023-06-24T11:54:41;94692.59;;;32.83;36.17
6136;BME280;24008;42.664;23.372;2023-06-24T11:57:08;94666.97;;;32.78;36.30
6136;BME280;24008;42.664;23.372;2023-06-24T11:59:55;94687.09;;;33.27;36.19
6136;BME280;24008;42.664;23.372;2023-06-24T12:02:24;94682.72;;;33.36;36.41
6136;BME280;24008;42.664;23.372;2023-06-24T12:04:50;94673.28;;;33.49;35.83
6136;BME280;24008;42.664;23.372;2023-06-24T12:07:17;94674.03;;;33.54;35.81
6136;BME280;24008;42.664;23.372;2023-06-24T12:09:44;94660.97;;;33.39;36.22
6136;BME280;24008;42.664;23.372;2023-06-24T12:12:11;94624.97;;;33.14;36.54
6136;BME280;24008;42.664;23.372;2023-06-24T12:14:37;94645.72;;;33.31;36.04
6136;BME280;24008;42.664;23.372;2023-06-24T12:17:04;94640.47;;;33.26;36.70
6136;BME280;24008;42.664;23.372;2023-06-24T12:19:32;94640.06;;;32.71;36.44
6136;BME280;24008;42.664;23.372;2023-06-24T12:21:59;94645.97;;;32.58;37.59
6136;BME280;24008;42.664;23.372;2023-06-24T12:24:26;94601.28;;;32.28;38.70
6136;BME280;24008;42.664;23.372;2023-06-24T12:26:53;94622.84;;;32.40;38.19
6136;BME280;24008;42.664;23.372;2023-06-24T12:29:19;94649.56;;;32.43;38.52
6136;BME280;24008;42.664;23.372;2023-06-24T12:31:46;94457.31;;;31.23;39.15
6136;BME280;24008;42.664;23.372;2023-06-24T12:34:13;94566.41;;;31.52;39.26
6136;BME280;24008;42.664;23.372;2023-06-24T12:36:41;94558.72;;;31.17;39.50
6136;BME280;24008;42.664;23.372;2023-06-24T12:39:08;94668.91;;;31.61;40.27
6136;BME280;24008;42.664;23.372;2023-06-24T12:41:35;94670.78;;;31.55;40.37
6136;BME280;24008;42.664;23.372;2023-06-24T12:44:01;94672.66;;;31.49;40.63
6136;BME280;24008;42.664;23.372;2023-06-24T12:46:28;94587.69;;;30.78;41.10
6136;BME280;24008;42.664;23.372;2023-06-24T12:48:55;94692.28;;;31.28;41.68
6136;BME280;24008;42.664;23.372;2023-06-24T12:51:22;94700.50;;;31.27;41.06
6136;BME280;24008;42.664;23.372;2023-06-24T12:53:52;94702.09;;;31.18;41.27
6136;BME280;24008;42.664;23.372;2023-06-24T12:56:21;94703.44;;;31.05;41.50
6136;BME280;24008;42.664;23.372;2023-06-24T12:58:48;94718.78;;;31.03;42.40
6136;BME280;24008;42.664;23.372;2023-06-24T13:01:15;94709.28;;;31.02;42.45
6136;BME280;24008;42.664;23.372;2023-06-24T13:03:42;94578.31;;;30.11;42.87
6136;BME280;24008;42.664;23.372;2023-06-24T13:06:08;94634.94;;;30.44;43.14
6136;BME280;24008;42.664;23.372;2023-06-24T13:08:35;94692.44;;;30.77;43.46